Time;durP1;ratioP1;P1;durP2;ratioP2;P2;SDS_P1;SDS_P2;PMS_P1;PMS_P2;Temp;Humidity;BMP_temperature;BMP_pressure;BME280_temperature;BME280_humidity;BME280_pressure;Samples;Min_cycle;Max_cycle;Signal;HPM_P1;HPM_P2
2022/06/30 00:00:56;;;;;;;19.52;3.80;;;;;;;24.11;43.20;100750.19;4974860;28;20030;-88
2022/06/30 00:03:21;;;;;;;24.35;4.07;;;;;;;24.15;43.00;100759.38;4974623;28;20030;-88
2022/06/30 00:05:47;;;;;;;10.65;2.95;;;;;;;24.15;43.00;100757.38;4974658;28;20058;-79
2022/06/30 00:08:12;;;;;;;11.98;2.95;;;;;;;24.18;43.02;100756.56;4974734;28;20030;-88
2022/06/30 00:10:38;;;;;;;12.30;2.85;;;;;;;24.24;42.99;100749.34;4974573;28;20031;-88
2022/06/30 00:13:03;;;;;;;24.38;4.53;;;;;;;24.19;43.00;100749.00;4974241;28;20041;-82
2022/06/30 00:15:29;;;;;;;17.30;3.92;;;;;;;24.17;42.90;100752.16;4957443;28;20035;-78
2022/06/30 00:17:55;;;;;;;31.80;5.05;;;;;;;24.17;42.83;100749.38;4989521;28;20049;-82
2022/06/30 00:20:21;;;;;;;31.35;4.15;;;;;;;24.16;42.97;100744.19;4974448;28;20107;-79
2022/06/30 00:22:47;;;;;;;25.17;4.18;;;;;;;24.15;43.19;100749.00;4974578;28;20061;-80
2022/06/30 00:25:17;;;;;;;22.00;4.00;;;;;;;24.12;43.08;100746.22;4974362;28;20135;-89
2022/06/30 00:27:43;;;;;;;23.05;3.78;;;;;;;24.16;42.96;100747.78;4973884;28;20449;-89
2022/06/30 00:30:09;;;;;;;21.17;4.03;;;;;;;24.13;43.20;100743.03;4973236;28;20093;-79
2022/06/30 00:32:35;;;;;;;16.35;3.83;;;;;;;24.18;42.83;100739.00;4974305;28;20062;-88
2022/06/30 00:35:01;;;;;;;12.00;3.67;;;;;;;24.17;42.87;100743.78;4974292;28;20105;-80
2022/06/30 00:37:27;;;;;;;15.20;3.90;;;;;;;24.21;43.09;100732.63;4974388;28;20027;-79
2022/06/30 00:39:53;;;;;;;19.55;3.72;;;;;;;24.22;42.93;100740.59;4974470;28;20386;-79
2022/06/30 00:42:19;;;;;;;21.98;4.72;;;;;;;24.17;43.02;100735.41;4974137;28;20027;-79
2022/06/30 00:44:44;;;;;;;20.77;3.92;;;;;;;24.09;42.94;100739.44;4974353;28;20114;-88
2022/06/30 00:47:10;;;;;;;21.08;3.67;;;;;;;24.11;42.98;100742.66;4974156;28;20034;-80
2022/06/30 00:49:37;;;;;;;15.35;4.40;;;;;;;24.10;43.05;100746.59;4974117;28;20465;-82
2022/06/30 00:52:06;;;;;;;12.07;3.70;;;;;;;24.07;43.14;100739.84;4974159;28;20027;-87
2022/06/30 00:54:34;;;;;;;23.98;3.92;;;;;;;24.07;43.45;100748.22;4973252;28;20506;-88
2022/06/30 00:57:00;;;;;;;11.48;2.70;;;;;;;24.10;43.14;100749.41;4989449;28;20023;-81
2022/06/30 00:59:28;;;;;;;14.77;3.80;;;;;;;24.05;43.17;100749.84;4975055;28;20422;-80
2022/06/30 01:01:55;;;;;;;16.50;3.92;;;;;;;24.31;42.54;100754.09;4978362;28;20054;-89
2022/06/30 01:04:20;;;;;;;17.02;3.22;;;;;;;24.41;42.24;100752.47;4977912;28;20130;-89
2022/06/30 01:06:46;;;;;;;21.45;4.20;;;;;;;24.45;42.21;100750.47;4977656;28;20138;-85
2022/06/30 01:12:41;;;;;;;26.75;3.97;;;;;;;24.46;42.07;100750.06;4977940;28;20493;-88
2022/06/30 01:14:47;;;;;;;15.32;3.40;;;;;;;24.66;41.79;100750.34;4958667;29;20285;-80
2022/06/30 01:17:12;;;;;;;21.70;4.22;;;;;;;24.65;41.90;100756.34;4958526;28;20031;-88
2022/06/30 01:19:52;;;;;;;18.60;4.55;;;;;;;24.58;41.69;100751.59;4958223;28;20445;-89
2022/06/30 01:22:17;;;;;;;20.17;3.50;;;;;;;24.66;41.79;100750.34;4958264;28;20027;-80
2022/06/30 01:24:43;;;;;;;24.45;5.30;;;;;;;24.62;41.37;100752.34;4958253;28;20280;-85
2022/06/30 01:27:09;;;;;;;22.95;3.83;;;;;;;24.62;41.81;100758.75;4957966;28;20044;-88
2022/06/30 01:29:34;;;;;;;17.67;4.22;;;;;;;24.41;42.42;100758.06;4977159;28;20392;-88
2022/06/30 01:32:00;;;;;;;31.30;4.57;;;;;;;24.32;42.28;100758.47;4977174;28;20037;-79
2022/06/30 01:34:26;;;;;;;32.20;5.15;;;;;;;24.21;42.62;100766.91;4977325;28;20050;-85
2022/06/30 01:36:51;;;;;;;29.17;4.30;;;;;;;24.23;42.58;100763.72;4976010;28;20034;-87
2022/06/30 01:39:17;;;;;;;24.15;4.22;;;;;;;24.29;42.28;100759.31;4976084;28;20035;-81
2022/06/30 01:41:42;;;;;;;19.80;3.65;;;;;;;24.22;42.39;100757.34;4976013;28;20030;-88
2022/06/30 01:44:08;;;;;;;17.15;3.28;;;;;;;24.20;42.47;100756.94;4976990;28;20031;-80
2022/06/30 01:46:34;;;;;;;14.18;2.90;;;;;;;24.21;42.51;100764.13;4977039;28;20027;-88
2022/06/30 01:48:59;;;;;;;8.85;2.15;;;;;;;24.18;42.76;100764.94;4977012;28;20030;-79
2022/06/30 01:51:25;;;;;;;14.75;4.00;;;;;;;24.14;42.49;100764.16;4976845;28;20027;-80
2022/06/30 01:53:50;;;;;;;10.70;3.08;;;;;;;24.12;42.62;100766.56;4976952;28;20404;-87
2022/06/30 01:56:16;;;;;;;14.25;3.20;;;;;;;24.12;42.71;100765.78;4976892;28;20485;-85
2022/06/30 01:58:41;;;;;;;13.05;2.38;;;;;;;24.11;42.78;100761.34;4976403;28;20395;-88
2022/06/30 02:01:07;;;;;;;11.02;2.60;;;;;;;24.06;42.54;100765.38;4976757;28;20039;-80
2022/06/30 02:03:32;;;;;;;11.00;2.35;;;;;;;24.09;42.42;100764.56;4975634;28;20039;-89
2022/06/30 02:05:59;;;;;;;5.85;2.15;;;;;;;24.13;42.12;100764.56;4976733;28;20034;-80
2022/06/30 02:08:25;;;;;;;7.53;1.95;;;;;;;24.14;42.29;100766.94;4976536;28;20034;-88
2022/06/30 02:10:50;;;;;;;14.52;3.22;;;;;;;24.07;42.57;100761.38;4975208;28;20027;-79
2022/06/30 02:13:16;;;;;;;13.57;2.80;;;;;;;24.04;42.56;100767.78;4976177;28;20049;-83
2022/06/30 02:15:42;;;;;;;13.20;2.88;;;;;;;24.03;42.39;100766.16;4991331;28;20410;-79
2022/06/30 02:18:08;;;;;;;8.75;2.70;;;;;;;24.04;42.42;100768.59;4976521;28;20451;-80
2022/06/30 02:20:35;;;;;;;8.15;2.28;;;;;;;23.93;42.57;100769.81;4976260;28;20078;-79
2022/06/30 02:23:02;;;;;;;11.77;3.03;;;;;;;24.02;41.81;100765.38;4976401;28;20023;-79
2022/06/30 02:25:30;;;;;;;9.13;2.28;;;;;;;23.82;42.63;100760.69;4991635;28;20022;-83
2022/06/30 02:27:57;;;;;;;11.77;2.28;;;;;;;23.82;42.54;100761.47;4990923;28;20115;-80
2022/06/30 02:30:24;;;;;;;14.50;3.08;;;;;;;23.85;42.49;100766.25;4976035;28;20039;-79
2022/06/30 02:32:50;;;;;;;11.65;2.42;;;;;;;23.90;42.33;100763.03;4976076;28;20035;-79
2022/06/30 02:35:16;;;;;;;10.25;2.30;;;;;;;23.96;42.08;100769.00;4976174;28;20045;-87
2022/06/30 02:37:41;;;;;;;9.65;2.50;;;;;;;23.93;41.94;100767.81;4974772;28;20031;-89
2022/06/30 02:40:08;;;;;;;10.55;2.50;;;;;;;23.97;41.81;100763.03;4976112;28;20062;-79
2022/06/30 02:42:34;;;;;;;6.95;1.83;;;;;;;23.96;41.95;100758.66;4975983;28;20030;-87
2022/06/30 02:44:59;;;;;;;10.52;1.90;;;;;;;23.83;42.37;100759.47;4975602;28;20050;-79
2022/06/30 02:47:36;;;;;;;15.15;3.13;;;;;;;23.89;41.92;100760.66;4975825;28;20042;-80
2022/06/30 02:50:04;;;;;;;10.98;2.00;;;;;;;23.86;42.07;100756.66;4975835;28;20058;-80
2022/06/30 02:52:34;;;;;;;6.97;1.92;;;;;;;23.83;42.10;100762.28;4975652;28;20473;-80
2022/06/30 02:55:00;;;;;;;12.88;2.42;;;;;;;23.77;41.96;100756.31;4975352;28;20114;-80
2022/06/30 02:57:26;;;;;;;10.82;2.50;;;;;;;23.76;42.18;100763.88;4975800;28;20123;-88
2022/06/30 02:59:51;;;;;;;12.85;2.97;;;;;;;23.78;41.97;100761.47;4976032;28;20027;-89
2022/06/30 03:02:17;;;;;;;14.70;3.53;;;;;;;23.77;42.10;100762.69;4975419;28;20045;-87
2022/06/30 03:04:43;;;;;;;12.68;2.83;;;;;;;23.77;41.85;100765.47;4975906;28;20564;-80
2022/06/30 03:07:08;;;;;;;11.07;2.75;;;;;;;23.83;41.76;100767.84;4975538;28;20038;-80
2022/06/30 03:09:34;;;;;;;13.10;2.08;;;;;;;23.79;41.82;100767.84;4975294;28;20066;-88
2022/06/30 03:12:00;;;;;;;11.52;2.63;;;;;;;23.79;41.83;100768.63;4975424;28;20037;-80
2022/06/30 03:14:25;;;;;;;13.02;2.47;;;;;;;23.75;41.87;100772.66;4975540;28;20085;-88
2022/06/30 03:16:51;;;;;;;10.55;2.58;;;;;;;23.71;41.90;100769.06;4975430;28;20031;-79
2022/06/30 03:19:17;;;;;;;14.85;3.13;;;;;;;23.66;42.34;100767.50;4975485;28;20023;-80
2022/06/30 03:21:42;;;;;;;10.07;3.22;;;;;;;23.69;42.25;100772.25;4974457;28;20035;-81
2022/06/30 03:24:08;;;;;;;8.27;2.65;;;;;;;23.69;42.15;100772.25;4974992;28;20030;-80
2022/06/30 03:26:36;;;;;;;18.88;2.40;;;;;;;23.69;42.03;100763.88;4973406;28;20023;-82
2022/06/30 03:29:02;;;;;;;12.45;3.47;;;;;;;23.70;42.40;100767.47;4974798;28;20038;-80
2022/06/30 03:31:28;;;;;;;9.23;2.60;;;;;;;23.69;42.22;100769.47;4973430;28;20023;-80
2022/06/30 03:33:53;;;;;;;14.50;3.15;;;;;;;23.68;42.42;100770.66;4973344;28;20038;-79
2022/06/30 03:36:19;;;;;;;9.75;2.47;;;;;;;23.67;42.11;100771.88;4975500;28;20061;-89
2022/06/30 03:38:44;;;;;;;10.20;3.22;;;;;;;23.66;42.20;100775.88;4976189;28;20019;-80
2022/06/30 03:41:10;;;;;;;15.23;3.30;;;;;;;23.65;42.48;100779.81;4985669;28;20031;-80
2022/06/30 03:43:36;;;;;;;12.57;2.95;;;;;;;23.64;42.08;100777.44;4974377;28;20068;-79
2022/06/30 03:46:01;;;;;;;12.18;2.95;;;;;;;23.63;42.36;100781.44;4977888;28;20030;-85
2022/06/30 03:48:27;;;;;;;13.15;2.55;;;;;;;23.62;42.31;100786.22;4980480;28;20829;-80
2022/06/30 03:50:52;;;;;;;14.30;3.30;;;;;;;23.52;42.30;100771.06;4985415;28;20381;-81
2022/06/30 03:53:18;;;;;;;15.07;3.20;;;;;;;23.60;42.41;100783.03;4984306;28;20030;-84
2022/06/30 03:55:44;;;;;;;16.10;4.05;;;;;;;23.57;42.46;100774.63;4983552;28;20022;-86
2022/06/30 03:58:09;;;;;;;12.02;2.85;;;;;;;23.60;42.24;100777.47;4982746;28;20031;-81
2022/06/30 04:00:35;;;;;;;14.15;4.10;;;;;;;23.61;42.55;100776.25;4985248;28;20033;-84
2022/06/30 04:03:03;;;;;;;11.68;3.10;;;;;;;23.62;42.01;100780.63;4979421;28;20085;-80
2022/06/30 04:05:29;;;;;;;19.52;4.35;;;;;;;23.62;42.25;100777.84;4991993;28;20025;-85
2022/06/30 04:07:54;;;;;;;14.77;2.63;;;;;;;23.60;42.32;100774.69;4980015;28;20405;-84
2022/06/30 04:10:20;;;;;;;21.35;3.50;;;;;;;23.59;42.43;100775.84;4989760;28;20202;-87
2022/06/30 04:12:46;;;;;;;12.60;3.30;;;;;;;23.55;42.59;100791.78;4981729;28;20503;-80
2022/06/30 04:15:11;;;;;;;15.57;3.25;;;;;;;23.47;42.56;100779.81;4980160;28;20023;-86
2022/06/30 04:17:37;;;;;;;13.05;3.00;;;;;;;23.52;42.53;100781.44;4983980;28;20023;-79
2022/06/30 04:20:03;;;;;;;23.35;3.90;;;;;;;23.44;42.72;100785.44;4982077;28;20482;-79
2022/06/30 04:22:29;;;;;;;16.02;3.58;;;;;;;23.42;42.73;100785.00;4981955;28;20034;-80
2022/06/30 04:24:55;;;;;;;16.27;3.58;;;;;;;23.42;42.64;100776.63;5002012;28;20038;-81
2022/06/30 04:27:21;;;;;;;9.05;2.40;;;;;;;23.44;42.80;100785.44;4987904;28;20043;-80
2022/06/30 04:29:46;;;;;;;12.93;3.05;;;;;;;23.42;42.98;100787.78;4976969;28;20053;-85
2022/06/30 04:34:56;;;;;;;18.15;3.50;;;;;;;23.41;42.86;100789.00;4984387;28;20116;-81
2022/06/30 04:37:21;;;;;;;12.10;3.33;;;;;;;23.41;42.97;100798.16;5003254;28;20622;-82
2022/06/30 04:39:47;;;;;;;14.50;3.50;;;;;;;23.46;43.00;100786.59;4974269;28;20397;-79
2022/06/30 04:42:13;;;;;;;12.10;3.40;;;;;;;23.46;42.98;100788.59;4957373;29;20046;-80
2022/06/30 04:44:39;;;;;;;17.17;3.47;;;;;;;23.42;42.66;100785.81;4958460;28;20019;-79
2022/06/30 04:47:04;;;;;;;9.60;3.15;;;;;;;23.46;43.15;100785.81;4958446;29;20030;-83
2022/06/30 04:49:30;;;;;;;17.90;3.38;;;;;;;23.47;42.87;100790.97;4958306;28;20034;-80
2022/06/30 04:51:56;;;;;;;10.20;3.28;;;;;;;23.44;42.80;100791.78;4973134;28;20065;-79
2022/06/30 04:54:21;;;;;;;17.77;4.70;;;;;;;23.40;43.25;100801.34;4957061;29;20031;-80
2022/06/30 04:56:47;;;;;;;11.40;3.00;;;;;;;23.46;42.82;100794.19;4960505;28;20031;-80
2022/06/30 04:59:12;;;;;;;12.30;3.00;;;;;;;23.48;42.62;100794.56;4977338;28;20031;-81
2022/06/30 05:01:38;;;;;;;15.27;4.35;;;;;;;23.42;43.11;100798.94;4977442;28;20027;-83
2022/06/30 05:04:04;;;;;;;8.25;2.60;;;;;;;23.45;42.89;100803.75;4977611;28;20030;-80
2022/06/30 05:06:29;;;;;;;19.58;4.90;;;;;;;23.39;43.06;100799.75;4977411;28;20023;-79
2022/06/30 05:08:55;;;;;;;10.30;2.95;;;;;;;23.45;42.91;100800.94;4975983;28;20065;-79
2022/06/30 05:11:21;;;;;;;12.13;3.17;;;;;;;23.48;43.23;100797.34;4977251;28;20082;-80
2022/06/30 05:13:47;;;;;;;12.30;3.20;;;;;;;23.51;42.92;100802.16;4977075;28;20030;-80
2022/06/30 05:16:12;;;;;;;11.57;3.92;;;;;;;23.55;42.97;100808.50;4977147;28;20026;-79
2022/06/30 05:18:38;;;;;;;15.40;4.18;;;;;;;23.51;43.33;100807.72;4977154;28;20031;-79
2022/06/30 05:21:04;;;;;;;9.70;3.80;;;;;;;23.52;43.00;100809.31;4977065;28;20022;-80
2022/06/30 05:23:29;;;;;;;12.55;3.92;;;;;;;23.54;43.47;100796.56;4976793;28;20112;-80
2022/06/30 05:28:39;;;;;;;9.85;3.58;;;;;;;23.57;43.11;100800.53;4976952;28;20177;-79
2022/06/30 05:31:04;;;;;;;5.85;2.97;;;;;;;23.55;43.35;100814.09;4976912;28;20082;-84
2022/06/30 05:33:30;;;;;;;8.27;3.33;;;;;;;23.47;43.59;100812.50;4976745;28;20038;-80
2022/06/30 05:35:57;;;;;;;15.85;3.95;;;;;;;23.52;43.58;100817.69;4957596;28;20031;-79
2022/06/30 05:38:23;;;;;;;17.60;4.78;;;;;;;23.40;43.63;100809.72;4972496;28;20264;-79
2022/06/30 05:40:49;;;;;;;9.60;3.28;;;;;;;23.46;43.79;100817.28;4957448;29;20117;-80
2022/06/30 05:43:16;;;;;;;19.67;3.85;;;;;;;23.54;43.55;100806.91;4957581;28;20390;-80
2022/06/30 05:45:45;;;;;;;8.15;2.70;;;;;;;23.58;43.34;100816.09;4956735;28;20031;-80
2022/06/30 05:48:11;;;;;;;13.35;4.00;;;;;;;23.51;43.39;100818.88;4955997;29;20470;-84
2022/06/30 05:50:36;;;;;;;10.55;3.40;;;;;;;23.55;43.56;100819.66;4963402;28;20114;-80
2022/06/30 05:53:02;;;;;;;21.20;4.28;;;;;;;23.54;43.54;100818.06;4975007;28;20402;-80
2022/06/30 05:55:28;;;;;;;12.00;3.70;;;;;;;23.55;43.41;100814.09;4976492;28;20031;-80
2022/06/30 05:57:56;;;;;;;11.60;3.45;;;;;;;23.75;43.38;100817.28;4976439;28;20043;-80
2022/06/30 06:00:24;;;;;;;9.88;3.33;;;;;;;23.80;43.02;100806.53;4976350;28;20034;-80
2022/06/30 06:02:50;;;;;;;9.65;3.08;;;;;;;23.98;42.90;100822.44;4991224;28;20029;-82
2022/06/30 06:05:16;;;;;;;20.27;4.07;;;;;;;24.06;42.72;100824.78;4991044;28;20038;-84
2022/06/30 06:07:42;;;;;;;10.07;3.33;;;;;;;24.14;42.12;100827.56;4976390;28;20565;-86
2022/06/30 06:10:08;;;;;;;13.88;4.20;;;;;;;23.75;43.17;100840.41;4991098;28;20069;-80
2022/06/30 06:12:35;;;;;;;17.67;4.40;;;;;;;23.63;43.55;100840.81;4975858;28;20038;-80
2022/06/30 06:15:00;;;;;;;12.38;3.90;;;;;;;23.69;43.40;100846.78;4976282;28;20038;-81
2022/06/30 06:17:30;;;;;;;10.38;4.05;;;;;;;23.63;44.00;100842.78;4991018;28;20034;-81
2022/06/30 06:19:56;;;;;;;;;;;;;;;23.59;43.91;100844.78;4976450;28;20561;-79
2022/06/30 06:22:22;;;;;;;8.40;3.10;;;;;;;23.64;43.52;100844.38;4975876;28;19918;-79
2022/06/30 06:24:48;;;;;;;11.55;4.22;;;;;;;23.59;43.74;100848.34;4975941;28;20114;-81
2022/06/30 06:27:13;;;;;;;10.02;3.67;;;;;;;23.64;43.65;100849.97;4975780;28;20074;-79
2022/06/30 06:29:39;;;;;;;10.90;3.78;;;;;;;23.65;43.89;100843.97;4975670;28;20098;-78
2022/06/30 06:32:05;;;;;;;10.85;3.50;;;;;;;23.60;43.76;100849.97;4975596;28;20043;-78
2022/06/30 06:34:31;;;;;;;10.13;3.65;;;;;;;23.59;43.73;100848.34;4975720;28;20033;-77
2022/06/30 06:36:56;;;;;;;15.38;4.15;;;;;;;23.63;43.88;100854.75;4975662;28;20034;-78
2022/06/30 06:39:22;;;;;;;19.58;4.10;;;;;;;23.65;43.94;100860.72;4975691;28;20033;-79
2022/06/30 06:41:48;;;;;;;14.43;4.53;;;;;;;23.62;43.85;100864.31;4976024;28;20154;-78
2022/06/30 06:44:13;;;;;;;13.68;3.88;;;;;;;23.66;43.75;100859.53;4975265;28;20031;-79
2022/06/30 06:46:39;;;;;;;15.50;4.70;;;;;;;23.60;43.82;100858.34;4975604;28;20031;-78
2022/06/30 06:49:09;;;;;;;12.60;3.50;;;;;;;23.59;44.29;100864.31;4983180;28;20031;-82
2022/06/30 06:51:35;;;;;;;14.70;4.28;;;;;;;23.62;43.91;100864.31;4986452;28;20477;-95
2022/06/30 06:54:01;;;;;;;10.80;3.65;;;;;;;23.66;44.13;100856.75;4980740;28;20415;-83
2022/06/30 06:56:27;;;;;;;12.40;4.30;;;;;;;23.59;44.42;100865.09;4974424;28;20039;-78
2022/06/30 06:58:53;;;;;;;13.82;3.88;;;;;;;23.70;44.03;100870.69;4976203;28;20031;-80
2022/06/30 07:01:19;;;;;;;9.95;3.30;;;;;;;23.77;44.18;100865.91;4975441;28;20037;-79
2022/06/30 07:03:44;;;;;;;6.38;3.67;;;;;;;23.80;43.87;100870.69;4975308;28;20026;-75
2022/06/30 07:06:10;;;;;;;19.65;5.40;;;;;;;23.68;44.41;100862.72;4974955;28;20039;-80
2022/06/30 07:08:36;;;;;;;11.90;4.10;;;;;;;23.72;44.12;100863.50;4974870;28;20042;-74
2022/06/30 07:11:03;;;;;;;9.20;3.97;;;;;;;23.83;44.09;100857.13;4974782;28;20035;-78
2022/06/30 07:13:30;;;;;;;10.65;3.15;;;;;;;23.98;43.71;100864.28;4974788;28;20404;-77
2022/06/30 07:15:56;;;;;;;13.85;4.22;;;;;;;24.01;43.82;100874.63;4974700;28;20041;-77
2022/06/30 07:18:22;;;;;;;5.97;2.88;;;;;;;24.07;43.98;100867.44;4973433;28;20503;-76
2022/06/30 07:20:48;;;;;;;7.00;3.03;;;;;;;24.17;43.55;100865.81;4973759;28;20646;-76
2022/06/30 07:23:14;;;;;;;8.20;3.17;;;;;;;24.08;44.35;100858.66;4974800;28;20037;-75
2022/06/30 07:25:40;;;;;;;9.13;2.97;;;;;;;24.40;43.42;100868.19;4984638;28;20035;-77
2022/06/30 07:28:06;;;;;;;9.20;3.20;;;;;;;24.29;43.86;100869.00;4979986;28;20081;-77
2022/06/30 07:30:32;;;;;;;14.88;3.40;;;;;;;24.28;43.92;100866.59;4957860;28;20097;-76
2022/06/30 07:32:58;;;;;;;10.75;3.92;;;;;;;24.32;43.51;100872.97;4958243;28;20431;-74
2022/06/30 07:35:24;;;;;;;11.18;3.45;;;;;;;24.34;43.75;100876.19;4958303;28;20122;-81
2022/06/30 07:37:49;;;;;;;11.80;3.10;;;;;;;24.37;43.47;100877.38;4958862;28;20126;-84
2022/06/30 07:40:15;;;;;;;10.60;3.38;;;;;;;24.31;44.06;100871.38;4958411;28;20040;-77
2022/06/30 07:42:42;;;;;;;12.70;3.80;;;;;;;24.40;43.70;100876.56;4958563;28;20097;-75
2022/06/30 07:45:08;;;;;;;5.80;3.38;;;;;;;24.41;43.59;100873.38;4957851;28;20038;-76
2022/06/30 07:47:34;;;;;;;8.13;2.72;;;;;;;24.55;43.64;100884.47;4958086;28;20033;-76
2022/06/30 07:50:00;;;;;;;5.10;3.00;;;;;;;24.49;43.69;100871.34;4958120;28;20027;-76
2022/06/30 07:52:26;;;;;;;8.20;3.60;;;;;;;24.60;43.50;100883.28;4957145;28;20042;-75
2022/06/30 07:54:52;;;;;;;9.52;2.80;;;;;;;24.69;42.86;100883.63;4971321;28;20041;-76
2022/06/30 07:57:19;;;;;;;7.55;4.00;;;;;;;24.75;42.98;100881.22;4974435;28;20031;-77
2022/06/30 07:59:44;;;;;;;16.15;4.95;;;;;;;24.76;43.06;100885.59;4974431;28;20470;-86
2022/06/30 08:02:11;;;;;;;7.10;2.97;;;;;;;24.89;43.04;100881.16;4974409;28;20038;-83
2022/06/30 08:04:37;;;;;;;14.60;3.83;;;;;;;24.89;42.92;100883.94;4973786;28;20106;-76
2022/06/30 08:07:03;;;;;;;8.85;3.03;;;;;;;24.84;43.12;100878.75;4972746;28;20359;-85
2022/06/30 08:09:30;;;;;;;7.40;3.55;;;;;;;24.82;43.50;100881.97;4972941;28;20031;-76
2022/06/30 08:11:55;;;;;;;7.38;3.35;;;;;;;24.86;43.08;100887.53;4972125;28;20066;-76
2022/06/30 08:14:22;;;;;;;6.50;3.90;;;;;;;24.88;43.18;100887.94;4973720;28;20031;-76
2022/06/30 08:16:48;;;;;;;6.28;2.80;;;;;;;24.94;42.98;100891.09;4973678;28;20030;-76
2022/06/30 08:19:15;;;;;;;8.57;3.47;;;;;;;24.96;42.81;100885.91;4973558;28;20122;-86
2022/06/30 08:21:40;;;;;;;6.63;2.90;;;;;;;24.97;42.93;100887.50;4973959;28;20030;-76
2022/06/30 08:24:06;;;;;;;10.23;2.85;;;;;;;24.99;42.62;100890.66;4973871;28;20035;-76
2022/06/30 08:26:32;;;;;;;9.13;3.67;;;;;;;24.97;42.49;100887.50;4988572;28;20055;-76
2022/06/30 08:28:58;;;;;;;5.80;3.10;;;;;;;24.89;42.47;100881.94;4973883;28;20034;-76
2022/06/30 08:31:24;;;;;;;8.45;3.47;;;;;;;24.86;42.34;100895.91;4974000;28;20437;-86
2022/06/30 08:33:50;;;;;;;8.18;3.05;;;;;;;24.87;42.23;100892.72;4973739;28;20035;-75
2022/06/30 08:36:17;;;;;;;9.07;3.75;;;;;;;24.85;42.42;100889.53;4974254;28;20544;-76
2022/06/30 08:38:43;;;;;;;8.60;3.72;;;;;;;24.97;42.37;100893.09;4971640;28;20455;-76
2022/06/30 08:43:53;;;;;;;7.53;2.90;;;;;;;25.23;42.00;100902.94;4973036;28;20062;-86
2022/06/30 08:46:22;;;;;;;4.65;2.47;;;;;;;25.29;41.63;100895.69;4972927;28;20540;-75
2022/06/30 08:48:48;;;;;;;9.68;2.78;;;;;;;25.36;42.07;100896.44;4973859;28;20031;-75
2022/06/30 08:51:15;;;;;;;9.93;3.30;;;;;;;25.38;42.19;100890.44;4972679;28;20050;-84
2022/06/30 08:53:55;;;;;;;7.18;3.95;;;;;;;25.46;42.25;100889.19;4964881;28;20073;-78
2022/06/30 08:56:23;;;;;;;4.63;2.38;;;;;;;25.56;41.95;100893.13;4967354;28;20085;-76
2022/06/30 08:58:51;;;;;;;5.78;2.65;;;;;;;25.62;41.89;100902.66;4973663;28;20027;-75
2022/06/30 09:01:17;;;;;;;6.03;2.70;;;;;;;25.73;41.57;100898.59;4969736;28;20041;-75
2022/06/30 09:03:43;;;;;;;5.38;2.67;;;;;;;25.69;41.53;100891.38;4959896;28;20027;-76
2022/06/30 09:06:09;;;;;;;3.80;2.10;;;;;;;26.34;40.53;100897.19;4971539;28;20035;-76
2022/06/30 09:08:35;;;;;;;4.45;2.85;;;;;;;26.20;40.86;100896.13;4973548;28;20023;-75
2022/06/30 09:11:01;;;;;;;5.00;2.45;;;;;;;26.13;40.90;100887.00;4973537;28;20399;-75
2022/06/30 09:13:40;;;;;;;5.07;2.10;;;;;;;26.21;40.59;100900.53;4973144;28;20046;-75
2022/06/30 09:16:05;;;;;;;2.80;1.90;;;;;;;26.71;39.82;100899.19;4973496;28;20030;-75
2022/06/30 09:18:31;;;;;;;5.47;3.17;;;;;;;26.89;38.82;100899.75;4973276;28;20027;-75
2022/06/30 09:20:58;;;;;;;4.88;2.20;;;;;;;26.91;38.93;100897.34;4976207;28;20140;-75
2022/06/30 09:23:26;;;;;;;7.35;2.40;;;;;;;27.05;38.60;100908.38;4975710;28;20480;-78
2022/06/30 09:25:55;;;;;;;3.70;1.90;;;;;;;27.04;38.70;100898.34;4977127;28;20019;-75
2022/06/30 09:28:44;;;;;;;3.55;1.92;;;;;;;26.97;38.68;100906.84;4976737;28;20489;-81
2022/06/30 09:31:11;;;;;;;4.13;2.35;;;;;;;27.28;38.31;100915.25;4976899;28;20030;-85
2022/06/30 09:33:41;;;;;;;4.80;2.25;;;;;;;27.46;37.98;100910.16;4976792;28;20110;-76
2022/06/30 09:36:27;;;;;;;3.03;1.83;;;;;;;27.56;37.80;100914.03;4975672;28;20027;-76
2022/06/30 09:39:01;;;;;;;4.07;2.00;;;;;;;27.68;37.57;100916.25;4976770;28;20101;-75
2022/06/30 09:41:31;;;;;;;4.38;1.70;;;;;;;27.77;37.19;100912.91;4991624;28;20034;-77
2022/06/30 09:43:57;;;;;;;3.10;1.73;;;;;;;27.87;36.73;100911.94;4976664;28;20097;-77
2022/06/30 09:46:23;;;;;;;5.68;1.75;;;;;;;27.99;36.33;100913.34;4976485;28;20109;-77
2022/06/30 09:48:48;;;;;;;9.70;2.03;;;;;;;28.02;36.48;100913.25;4991503;28;20025;-76
2022/06/30 09:51:14;;;;;;;2.72;1.58;;;;;;;28.32;36.14;100903.09;4974950;28;20449;-75
2022/06/30 09:53:40;;;;;;;5.47;2.97;;;;;;;28.40;36.08;100904.56;4976303;28;20034;-75
2022/06/30 09:56:12;;;;;;;8.82;2.10;;;;;;;28.39;35.70;100900.94;4976356;28;20414;-76
2022/06/30 09:58:41;;;;;;;3.38;1.42;;;;;;;28.41;35.68;100906.13;4975941;28;20101;-76
2022/06/30 10:01:06;;;;;;;4.60;1.80;;;;;;;28.51;34.99;100907.16;4976233;28;20482;-76
2022/06/30 10:03:32;;;;;;;4.90;2.03;;;;;;;28.49;34.88;100907.59;4976330;28;20033;-76
2022/06/30 10:06:13;;;;;;;6.13;1.80;;;;;;;28.53;34.51;100919.56;4976328;28;20417;-76
2022/06/30 10:08:39;;;;;;;5.30;2.38;;;;;;;28.62;34.71;100911.31;4976365;28;20101;-76
2022/06/30 10:11:06;;;;;;;6.55;2.60;;;;;;;28.55;34.89;100911.47;4976239;28;20037;-78
2022/06/30 10:13:39;;;;;;;4.35;2.25;;;;;;;28.66;34.45;100908.47;4976248;28;20081;-79
2022/06/30 10:16:07;;;;;;;3.00;1.67;;;;;;;28.88;33.95;100914.44;4976379;28;20023;-78
2022/06/30 10:18:37;;;;;;;6.22;1.60;;;;;;;28.73;33.48;100909.09;4976129;28;20019;-78
2022/06/30 10:21:04;;;;;;;5.97;1.77;;;;;;;28.93;33.12;100903.47;4976034;28;20537;-79
2022/06/30 10:23:31;;;;;;;4.93;1.65;;;;;;;29.00;33.15;100900.50;4976112;28;20031;-79
2022/06/30 10:25:57;;;;;;;2.33;1.40;;;;;;;28.95;33.08;100889.00;4975881;28;20019;-79
2022/06/30 10:28:24;;;;;;;3.42;1.40;;;;;;;28.93;32.83;100902.69;4975737;28;20118;-79
2022/06/30 10:31:14;;;;;;;5.07;1.83;;;;;;;28.95;32.45;100900.25;4975102;28;20027;-79
2022/06/30 10:33:42;;;;;;;;;;;;;;;29.01;32.00;100899.25;4976153;28;20617;-84
2022/06/30 10:36:14;;;;;;;7.75;1.80;;;;;;;29.17;32.41;100900.53;4975628;28;20000;-79
2022/06/30 10:38:43;;;;;;;3.15;1.45;;;;;;;29.33;31.90;100902.59;4974464;28;20030;-79
2022/06/30 10:41:10;;;;;;;3.95;1.88;;;;;;;29.41;32.04;100904.78;4975648;28;20027;-78
2022/06/30 10:44:04;;;;;;;6.05;1.60;;;;;;;29.37;30.27;100889.22;4975480;28;20030;-79
2022/06/30 10:46:56;;;;;;;4.30;1.50;;;;;;;29.51;30.96;100886.09;4975519;28;20050;-78
2022/06/30 10:49:24;;;;;;;4.03;1.60;;;;;;;29.79;31.67;100891.00;4975499;28;20038;-79
2022/06/30 10:51:54;;;;;;;3.97;1.77;;;;;;;30.02;31.00;100892.81;4975380;28;20026;-78
2022/06/30 10:54:41;;;;;;;5.15;1.63;;;;;;;30.10;30.88;100893.44;4975807;28;20037;-79
2022/06/30 10:57:08;;;;;;;3.05;1.23;;;;;;;30.15;30.42;100894.91;4975225;28;20101;-79
2022/06/30 10:59:40;;;;;;;6.18;1.40;;;;;;;30.34;30.33;100885.53;4975269;28;20054;-79
2022/06/30 11:02:08;;;;;;;7.10;1.65;;;;;;;30.38;29.84;100881.38;4975445;28;20026;-79
2022/06/30 11:04:35;;;;;;;5.50;1.75;;;;;;;30.70;29.29;100888.16;4974209;28;20026;-78
2022/06/30 11:07:07;;;;;;;2.15;1.00;;;;;;;30.79;29.27;100879.81;4975290;28;20030;-78
2022/06/30 11:09:44;;;;;;;4.20;1.40;;;;;;;30.79;29.11;100876.97;4975359;28;20385;-87
2022/06/30 11:12:11;;;;;;;2.67;1.10;;;;;;;30.51;28.70;100889.84;4975139;28;20023;-75
2022/06/30 11:14:41;;;;;;;6.20;1.67;;;;;;;30.77;28.53;100882.28;4974985;28;20038;-78
2022/06/30 11:17:14;;;;;;;3.75;1.83;;;;;;;30.84;27.91;100884.13;5007205;28;20062;-77
2022/06/30 11:19:39;;;;;;;4.18;1.60;;;;;;;31.07;28.75;100889.44;4989232;28;20425;-77
2022/06/30 11:22:07;;;;;;;4.93;1.20;;;;;;;31.00;28.61;100880.41;4979183;28;20033;-76
2022/06/30 11:24:38;;;;;;;2.03;1.40;;;;;;;30.90;27.67;100890.75;4988750;28;20054;-76
2022/06/30 11:27:23;;;;;;;5.43;1.45;;;;;;;31.07;28.01;100897.91;4980029;28;20043;-77
2022/06/30 11:29:57;;;;;;;2.50;1.10;;;;;;;30.89;27.19;100894.81;4994195;28;20094;-77
2022/06/30 11:32:23;;;;;;;4.10;1.35;;;;;;;30.75;27.97;100892.41;4992318;28;20026;-77